sensor_id;sensor_type;location;lat;lon;timestamp;P1;durP1;ratioP1;P2;durP2;ratioP2
36989;SDS011;22898;52.102;5.776;2024-03-23T00:54:41;12.65;;;4.00;;
36989;SDS011;22898;52.102;5.776;2024-03-23T00:57:07;12.25;;;4.65;;
36989;SDS011;22898;52.102;5.776;2024-03-23T00:59:33;21.25;;;5.38;;
36989;SDS011;22898;52.102;5.776;2024-03-23T01:01:58;11.10;;;4.13;;
36989;SDS011;22898;52.102;5.776;2024-03-23T01:04:24;9.23;;;4.72;;
36989;SDS011;22898;52.102;5.776;2024-03-23T01:06:49;13.70;;;4.75;;
36989;SDS011;22898;52.102;5.776;2024-03-23T01:09:15;14.90;;;5.30;;
36989;SDS011;22898;52.102;5.776;2024-03-23T01:11:41;11.95;;;4.40;;
36989;SDS011;22898;52.102;5.776;2024-03-23T01:14:06;13.52;;;4.45;;
36989;SDS011;22898;52.102;5.776;2024-03-23T01:16:32;10.13;;;4.15;;
36989;SDS011;22898;52.102;5.776;2024-03-23T01:18:58;11.10;;;4.50;;
36989;SDS011;22898;52.102;5.776;2024-03-23T01:21:23;16.73;;;5.13;;
36989;SDS011;22898;52.102;5.776;2024-03-23T01:23:49;11.85;;;4.55;;
36989;SDS011;22898;52.102;5.776;2024-03-23T01:26:15;11.25;;;4.28;;
36989;SDS011;22898;52.102;5.776;2024-03-23T01:28:41;12.40;;;5.03;;
36989;SDS011;22898;52.102;5.776;2024-03-23T01:31:06;8.00;;;4.50;;
36989;SDS011;22898;52.102;5.776;2024-03-23T01:33:32;10.02;;;4.53;;
36989;SDS011;22898;52.102;5.776;2024-03-23T01:35:57;12.85;;;4.28;;
36989;SDS011;22898;52.102;5.776;2024-03-23T01:38:23;11.15;;;5.03;;
36989;SDS011;22898;52.102;5.776;2024-03-23T01:40:49;13.60;;;4.88;;
36989;SDS011;22898;52.102;5.776;2024-03-23T01:43:14;17.30;;;4.65;;
36989;SDS011;22898;52.102;5.776;2024-03-23T01:45:40;17.23;;;5.03;;
36989;SDS011;22898;52.102;5.776;2024-03-23T01:48:06;11.93;;;3.85;;
36989;SDS011;22898;52.102;5.776;2024-03-23T01:50:32;12.77;;;4.50;;
36989;SDS011;22898;52.102;5.776;2024-03-23T01:52:59;14.43;;;5.97;;
36989;SDS011;22898;52.102;5.776;2024-03-23T01:55:27;12.00;;;4.75;;
36989;SDS011;22898;52.102;5.776;2024-03-23T01:57:53;7.22;;;3.78;;
36989;SDS011;22898;52.102;5.776;2024-03-23T02:00:21;10.02;;;4.95;;
36989;SDS011;22898;52.102;5.776;2024-03-23T02:02:48;19.42;;;3.95;;
36989;SDS011;22898;52.102;5.776;2024-03-23T02:05:14;11.48;;;4.32;;
36989;SDS011;22898;52.102;5.776;2024-03-23T02:07:40;17.15;;;4.97;;
36989;SDS011;22898;52.102;5.776;2024-03-23T02:10:07;13.05;;;5.00;;
36989;SDS011;22898;52.102;5.776;2024-03-23T02:12:33;13.13;;;3.92;;
36989;SDS011;22898;52.102;5.776;2024-03-23T02:14:59;20.90;;;6.05;;
36989;SDS011;22898;52.102;5.776;2024-03-23T02:17:25;12.13;;;4.82;;
36989;SDS011;22898;52.102;5.776;2024-03-23T02:19:50;26.77;;;4.85;;
36989;SDS011;22898;52.102;5.776;2024-03-23T02:22:16;12.40;;;4.32;;
36989;SDS011;22898;52.102;5.776;2024-03-23T02:24:42;9.63;;;5.63;;
36989;SDS011;22898;52.102;5.776;2024-03-23T02:27:08;14.57;;;3.97;;
36989;SDS011;22898;52.102;5.776;2024-03-23T02:29:33;13.18;;;4.50;;
36989;SDS011;22898;52.102;5.776;2024-03-23T02:31:59;10.20;;;4.63;;
36989;SDS011;22898;52.102;5.776;2024-03-23T02:34:25;7.65;;;4.88;;
36989;SDS011;22898;52.102;5.776;2024-03-23T02:36:50;14.23;;;4.75;;
36989;SDS011;22898;52.102;5.776;2024-03-23T02:39:16;8.25;;;4.03;;
36989;SDS011;22898;52.102;5.776;2024-03-23T02:41:42;12.30;;;3.85;;
36989;SDS011;22898;52.102;5.776;2024-03-23T02:44:07;13.73;;;5.20;;
36989;SDS011;22898;52.102;5.776;2024-03-23T02:46:36;14.23;;;3.80;;
36989;SDS011;22898;52.102;5.776;2024-03-23T02:49:03;10.48;;;4.35;;
36989;SDS011;22898;52.102;5.776;2024-03-23T02:51:29;13.82;;;4.40;;
36989;SDS011;22898;52.102;5.776;2024-03-23T02:53:55;11.63;;;4.97;;
36989;SDS011;22898;52.102;5.776;2024-03-23T02:56:21;9.10;;;4.70;;
36989;SDS011;22898;52.102;5.776;2024-03-23T02:58:46;12.18;;;4.68;;
36989;SDS011;22898;52.102;5.776;2024-03-23T03:01:12;15.00;;;4.38;;
36989;SDS011;22898;52.102;5.776;2024-03-23T03:03:38;10.50;;;4.70;;
36989;SDS011;22898;52.102;5.776;2024-03-23T03:06:03;13.73;;;4.43;;
36989;SDS011;22898;52.102;5.776;2024-03-23T03:08:29;11.90;;;4.43;;
36989;SDS011;22898;52.102;5.776;2024-03-23T03:10:55;12.23;;;5.25;;
36989;SDS011;22898;52.102;5.776;2024-03-23T03:13:20;10.80;;;4.38;;
36989;SDS011;22898;52.102;5.776;2024-03-23T03:15:46;9.48;;;4.15;;
36989;SDS011;22898;52.102;5.776;2024-03-23T03:18:12;15.38;;;5.38;;
36989;SDS011;22898;52.102;5.776;2024-03-23T03:20:40;9.57;;;4.47;;
36989;SDS011;22898;52.102;5.776;2024-03-23T03:23:06;12.52;;;4.93;;
36989;SDS011;22898;52.102;5.776;2024-03-23T03:25:32;10.13;;;5.38;;
36989;SDS011;22898;52.102;5.776;2024-03-23T03:27:58;19.30;;;6.00;;
36989;SDS011;22898;52.102;5.776;2024-03-23T03:30:24;10.48;;;4.75;;
36989;SDS011;22898;52.102;5.776;2024-03-23T03:32:53;13.63;;;5.18;;
36989;SDS011;22898;52.102;5.776;2024-03-23T03:35:19;8.85;;;3.78;;
36989;SDS011;22898;52.102;5.776;2024-03-23T03:37:49;15.80;;;4.97;;
36989;SDS011;22898;52.102;5.776;2024-03-23T03:40:14;11.45;;;4.68;;
36989;SDS011;22898;52.102;5.776;2024-03-23T03:42:40;13.82;;;4.45;;
36989;SDS011;22898;52.102;5.776;2024-03-23T03:45:06;16.27;;;4.50;;
36989;SDS011;22898;52.102;5.776;2024-03-23T03:47:32;11.88;;;4.03;;
36989;SDS011;22898;52.102;5.776;2024-03-23T03:49:58;5.32;;;3.05;;
36989;SDS011;22898;52.102;5.776;2024-03-23T03:52:24;13.82;;;4.47;;
36989;SDS011;22898;52.102;5.776;2024-03-23T03:54:49;8.18;;;4.55;;
36989;SDS011;22898;52.102;5.776;2024-03-23T03:57:15;8.70;;;5.00;;
36989;SDS011;22898;52.102;5.776;2024-03-23T03:59:40;9.10;;;4.18;;
36989;SDS011;22898;52.102;5.776;2024-03-23T04:02:06;11.20;;;4.18;;
36989;SDS011;22898;52.102;5.776;2024-03-23T04:04:31;14.23;;;5.15;;
36989;SDS011;22898;52.102;5.776;2024-03-23T04:07:00;11.82;;;4.80;;
36989;SDS011;22898;52.102;5.776;2024-03-23T04:09:27;10.38;;;4.35;;
36989;SDS011;22898;52.102;5.776;2024-03-23T04:11:53;9.20;;;4.20;;
36989;SDS011;22898;52.102;5.776;2024-03-23T04:14:19;13.45;;;5.15;;
36989;SDS011;22898;52.102;5.776;2024-03-23T04:16:44;9.27;;;4.03;;
36989;SDS011;22898;52.102;5.776;2024-03-23T04:19:11;12.23;;;3.83;;
36989;SDS011;22898;52.102;5.776;2024-03-23T04:21:37;14.57;;;4.63;;
36989;SDS011;22898;52.102;5.776;2024-03-23T04:24:03;12.23;;;3.90;;
36989;SDS011;22898;52.102;5.776;2024-03-23T04:26:29;15.52;;;3.70;;
36989;SDS011;22898;52.102;5.776;2024-03-23T04:28:54;16.17;;;4.38;;
36989;SDS011;22898;52.102;5.776;2024-03-23T04:31:20;12.48;;;4.00;;
36989;SDS011;22898;52.102;5.776;2024-03-23T04:33:46;9.40;;;3.63;;
36989;SDS011;22898;52.102;5.776;2024-03-23T04:36:12;10.13;;;4.10;;
36989;SDS011;22898;52.102;5.776;2024-03-23T04:38:38;16.65;;;4.13;;
36989;SDS011;22898;52.102;5.776;2024-03-23T04:41:03;10.93;;;3.63;;
36989;SDS011;22898;52.102;5.776;2024-03-23T04:43:29;9.30;;;3.80;;
36989;SDS011;22898;52.102;5.776;2024-03-23T04:45:54;14.32;;;3.75;;
36989;SDS011;22898;52.102;5.776;2024-03-23T04:48:21;8.80;;;3.42;;
36989;SDS011;22898;52.102;5.776;2024-03-23T04:50:47;6.85;;;3.10;;
36989;SDS011;22898;52.102;5.776;2024-03-23T04:53:14;8.65;;;3.45;;
36989;SDS011;22898;52.102;5.776;2024-03-23T04:55:40;7.30;;;3.47;;
36989;SDS011;22898;52.102;5.776;2024-03-23T04:58:07;12.73;;;3.60;;
36989;SDS011;22898;52.102;5.776;2024-03-23T05:00:32;8.88;;;3.53;;
36989;SDS011;22898;52.102;5.776;2024-03-23T05:02:58;9.00;;;3.53;;
36989;SDS011;22898;52.102;5.776;2024-03-23T05:05:23;11.13;;;4.00;;
36989;SDS011;22898;52.102;5.776;2024-03-23T05:07:49;7.47;;;2.80;;
36989;SDS011;22898;52.102;5.776;2024-03-23T05:10:15;6.53;;;3.35;;
36989;SDS011;22898;52.102;5.776;2024-03-23T05:12:41;11.80;;;2.92;;
36989;SDS011;22898;52.102;5.776;2024-03-23T05:15:07;10.40;;;2.80;;
36989;SDS011;22898;52.102;5.776;2024-03-23T05:17:33;9.65;;;2.40;;
36989;SDS011;22898;52.102;5.776;2024-03-23T05:19:59;8.48;;;2.70;;
36989;SDS011;22898;52.102;5.776;2024-03-23T05:22:24;6.70;;;2.22;;
36989;SDS011;22898;52.102;5.776;2024-03-23T05:24:50;7.82;;;2.95;;
36989;SDS011;22898;52.102;5.776;2024-03-23T05:27:16;8.90;;;2.78;;
36989;SDS011;22898;52.102;5.776;2024-03-23T05:29:41;8.75;;;2.45;;
36989;SDS011;22898;52.102;5.776;2024-03-23T05:32:07;7.20;;;2.25;;
36989;SDS011;22898;52.102;5.776;2024-03-23T05:34:33;10.32;;;3.15;;
36989;SDS011;22898;52.102;5.776;2024-03-23T05:36:58;5.97;;;2.42;;
36989;SDS011;22898;52.102;5.776;2024-03-23T05:39:24;10.52;;;2.22;;
36989;SDS011;22898;52.102;5.776;2024-03-23T05:41:50;10.40;;;2.65;;
36989;SDS011;22898;52.102;5.776;2024-03-23T05:44:16;10.18;;;2.58;;
36989;SDS011;22898;52.102;5.776;2024-03-23T05:46:41;2.45;;;1.52;;
36989;SDS011;22898;52.102;5.776;2024-03-23T05:49:07;4.80;;;1.92;;
36989;SDS011;22898;52.102;5.776;2024-03-23T05:51:34;8.57;;;1.80;;
36989;SDS011;22898;52.102;5.776;2024-03-23T05:53:59;3.28;;;1.60;;
36989;SDS011;22898;52.102;5.776;2024-03-23T05:56:26;6.95;;;1.73;;
36989;SDS011;22898;52.102;5.776;2024-03-23T05:58:51;8.15;;;3.83;;
36989;SDS011;22898;52.102;5.776;2024-03-23T06:01:17;5.07;;;1.75;;
36989;SDS011;22898;52.102;5.776;2024-03-23T06:03:43;3.78;;;1.73;;
36989;SDS011;22898;52.102;5.776;2024-03-23T06:06:09;12.02;;;2.25;;
36989;SDS011;22898;52.102;5.776;2024-03-23T06:08:37;8.20;;;2.20;;
36989;SDS011;22898;52.102;5.776;2024-03-23T06:11:03;8.02;;;2.58;;
36989;SDS011;22898;52.102;5.776;2024-03-23T06:13:31;10.43;;;1.75;;
36989;SDS011;22898;52.102;5.776;2024-03-23T06:15:56;4.95;;;1.25;;
36989;SDS011;22898;52.102;5.776;2024-03-23T06:18:23;8.00;;;1.40;;
36989;SDS011;22898;52.102;5.776;2024-03-23T06:20:49;4.07;;;1.80;;
36989;SDS011;22898;52.102;5.776;2024-03-23T06:23:14;8.70;;;2.05;;
36989;SDS011;22898;52.102;5.776;2024-03-23T06:25:42;5.30;;;1.77;;
36989;SDS011;22898;52.102;5.776;2024-03-23T06:28:08;5.28;;;1.27;;
36989;SDS011;22898;52.102;5.776;2024-03-23T06:30:33;11.45;;;2.20;;
36989;SDS011;22898;52.102;5.776;2024-03-23T06:32:59;4.25;;;1.77;;
36989;SDS011;22898;52.102;5.776;2024-03-23T06:35:24;7.57;;;1.45;;
36989;SDS011;22898;52.102;5.776;2024-03-23T06:37:50;7.45;;;1.30;;
36989;SDS011;22898;52.102;5.776;2024-03-23T06:40:16;10.40;;;1.70;;
36989;SDS011;22898;52.102;5.776;2024-03-23T06:42:41;3.90;;;2.05;;
36989;SDS011;22898;52.102;5.776;2024-03-23T06:45:07;2.85;;;1.60;;
36989;SDS011;22898;52.102;5.776;2024-03-23T06:47:33;6.15;;;1.10;;
36989;SDS011;22898;52.102;5.776;2024-03-23T06:50:02;2.25;;;1.00;;
36989;SDS011;22898;52.102;5.776;2024-03-23T06:52:29;6.22;;;1.63;;
36989;SDS011;22898;52.102;5.776;2024-03-23T06:54:55;5.75;;;1.67;;
36989;SDS011;22898;52.102;5.776;2024-03-23T06:57:21;6.63;;;0.95;;
36989;SDS011;22898;52.102;5.776;2024-03-23T06:59:46;3.25;;;1.30;;
36989;SDS011;22898;52.102;5.776;2024-03-23T07:02:12;7.72;;;1.67;;
36989;SDS011;22898;52.102;5.776;2024-03-23T07:04:38;3.70;;;1.30;;
36989;SDS011;22898;52.102;5.776;2024-03-23T07:07:04;3.10;;;1.23;;
36989;SDS011;22898;52.102;5.776;2024-03-23T07:09:30;6.00;;;1.80;;
36989;SDS011;22898;52.102;5.776;2024-03-23T07:11:56;6.30;;;1.20;;
36989;SDS011;22898;52.102;5.776;2024-03-23T07:14:22;6.28;;;1.50;;
36989;SDS011;22898;52.102;5.776;2024-03-23T07:16:49;4.85;;;1.20;;
36989;SDS011;22898;52.102;5.776;2024-03-23T07:19:18;4.78;;;1.05;;
36989;SDS011;22898;52.102;5.776;2024-03-23T07:21:44;2.25;;;0.82;;
36989;SDS011;22898;52.102;5.776;2024-03-23T07:24:12;2.58;;;1.08;;
36989;SDS011;22898;52.102;5.776;2024-03-23T07:26:38;5.63;;;1.48;;
36989;SDS011;22898;52.102;5.776;2024-03-23T07:29:04;6.22;;;1.48;;
36989;SDS011;22898;52.102;5.776;2024-03-23T07:31:30;3.75;;;2.08;;
36989;SDS011;22898;52.102;5.776;2024-03-23T07:33:56;4.30;;;1.23;;
36989;SDS011;22898;52.102;5.776;2024-03-23T07:36:21;4.90;;;2.20;;
36989;SDS011;22898;52.102;5.776;2024-03-23T07:38:47;11.00;;;1.58;;
36989;SDS011;22898;52.102;5.776;2024-03-23T07:41:16;8.68;;;1.67;;
36989;SDS011;22898;52.102;5.776;2024-03-23T07:43:43;4.55;;;1.73;;
36989;SDS011;22898;52.102;5.776;2024-03-23T07:46:14;3.08;;;1.23;;
36989;SDS011;22898;52.102;5.776;2024-03-23T07:48:40;2.05;;;1.05;;
36989;SDS011;22898;52.102;5.776;2024-03-23T07:51:10;9.35;;;1.65;;
36989;SDS011;22898;52.102;5.776;2024-03-23T07:53:42;6.07;;;2.20;;
36989;SDS011;22898;52.102;5.776;2024-03-23T07:56:10;4.40;;;2.00;;
36989;SDS011;22898;52.102;5.776;2024-03-23T07:58:36;6.70;;;1.70;;
36989;SDS011;22898;52.102;5.776;2024-03-23T08:01:06;9.43;;;2.08;;
36989;SDS011;22898;52.102;5.776;2024-03-23T08:03:40;2.78;;;1.10;;
36989;SDS011;22898;52.102;5.776;2024-03-23T08:06:07;3.45;;;1.45;;
36989;SDS011;22898;52.102;5.776;2024-03-23T08:08:33;6.68;;;1.85;;
36989;SDS011;22898;52.102;5.776;2024-03-23T08:10:59;11.10;;;1.92;;
36989;SDS011;22898;52.102;5.776;2024-03-23T08:13:25;6.00;;;1.73;;
36989;SDS011;22898;52.102;5.776;2024-03-23T08:15:51;5.32;;;1.50;;
36989;SDS011;22898;52.102;5.776;2024-03-23T08:18:17;4.90;;;1.42;;
36989;SDS011;22898;52.102;5.776;2024-03-23T08:20:42;6.88;;;1.50;;
36989;SDS011;22898;52.102;5.776;2024-03-23T08:23:08;8.32;;;1.35;;
36989;SDS011;22898;52.102;5.776;2024-03-23T08:25:34;4.57;;;1.40;;
36989;SDS011;22898;52.102;5.776;2024-03-23T08:28:00;3.00;;;1.35;;
36989;SDS011;22898;52.102;5.776;2024-03-23T08:30:28;4.80;;;1.27;;
36989;SDS011;22898;52.102;5.776;2024-03-23T08:32:54;5.32;;;1.60;;
36989;SDS011;22898;52.102;5.776;2024-03-23T08:35:20;6.78;;;2.70;;
36989;SDS011;22898;52.102;5.776;2024-03-23T08:37:46;2.75;;;1.15;;
36989;SDS011;22898;52.102;5.776;2024-03-23T08:40:11;4.15;;;1.40;;
36989;SDS011;22898;52.102;5.776;2024-03-23T08:42:37;4.88;;;1.08;;
36989;SDS011;22898;52.102;5.776;2024-03-23T08:45:03;4.97;;;1.17;;
36989;SDS011;22898;52.102;5.776;2024-03-23T08:47:29;4.25;;;1.35;;
36989;SDS011;22898;52.102;5.776;2024-03-23T08:49:55;2.50;;;1.13;;
36989;SDS011;22898;52.102;5.776;2024-03-23T08:52:20;2.60;;;1.98;;
36989;SDS011;22898;52.102;5.776;2024-03-23T08:54:48;3.38;;;1.23;;
36989;SDS011;22898;52.102;5.776;2024-03-23T08:57:13;6.95;;;1.42;;
36989;SDS011;22898;52.102;5.776;2024-03-23T08:59:39;4.63;;;1.58;;
36989;SDS011;22898;52.102;5.776;2024-03-23T09:02:05;8.48;;;1.25;;
36989;SDS011;22898;52.102;5.776;2024-03-23T09:04:30;14.10;;;1.30;;
36989;SDS011;22898;52.102;5.776;2024-03-23T09:06:56;3.90;;;1.40;;
36989;SDS011;22898;52.102;5.776;2024-03-23T09:09:24;3.22;;;0.90;;
36989;SDS011;22898;52.102;5.776;2024-03-23T09:11:49;1.88;;;0.90;;
36989;SDS011;22898;52.102;5.776;2024-03-23T09:14:15;0.95;;;0.93;;
36989;SDS011;22898;52.102;5.776;2024-03-23T09:16:40;2.80;;;1.10;;
36989;SDS011;22898;52.102;5.776;2024-03-23T09:19:06;1.00;;;0.85;;
36989;SDS011;22898;52.102;5.776;2024-03-23T09:21:32;3.70;;;1.05;;
36989;SDS011;22898;52.102;5.776;2024-03-23T09:23:58;3.28;;;0.98;;
36989;SDS011;22898;52.102;5.776;2024-03-23T09:26:23;5.97;;;1.13;;
36989;SDS011;22898;52.102;5.776;2024-03-23T09:28:49;8.98;;;1.20;;
36989;SDS011;22898;52.102;5.776;2024-03-23T09:31:15;4.18;;;1.13;;
36989;SDS011;22898;52.102;5.776;2024-03-23T09:33:40;2.95;;;1.00;;
36989;SDS011;22898;52.102;5.776;2024-03-23T09:36:07;4.78;;;0.80;;
36989;SDS011;22898;52.102;5.776;2024-03-23T09:38:33;4.30;;;1.15;;
36989;SDS011;22898;52.102;5.776;2024-03-23T09:40:59;8.38;;;0.90;;
36989;SDS011;22898;52.102;5.776;2024-03-23T09:43:25;5.57;;;0.90;;
36989;SDS011;22898;52.102;5.776;2024-03-23T09:45:51;2.20;;;1.10;;
36989;SDS011;22898;52.102;5.776;2024-03-23T09:48:17;2.88;;;0.93;;
36989;SDS011;22898;52.102;5.776;2024-03-23T09:50:44;4.15;;;1.00;;
36989;SDS011;22898;52.102;5.776;2024-03-23T09:53:14;3.03;;;1.95;;
36989;SDS011;22898;52.102;5.776;2024-03-23T09:55:40;4.28;;;1.00;;
36989;SDS011;22898;52.102;5.776;2024-03-23T09:58:07;5.63;;;0.85;;
36989;SDS011;22898;52.102;5.776;2024-03-23T10:00:37;0.50;;;0.50;;
36989;SDS011;22898;52.102;5.776;2024-03-23T10:03:02;1.13;;;0.85;;
36989;SDS011;22898;52.102;5.776;2024-03-23T10:05:31;0.70;;;0.70;;
36989;SDS011;22898;52.102;5.776;2024-03-23T10:07:59;4.97;;;1.23;;
36989;SDS011;22898;52.102;5.776;2024-03-23T10:10:40;2.45;;;0.95;;
36989;SDS011;22898;52.102;5.776;2024-03-23T10:13:06;5.25;;;1.10;;
36989;SDS011;22898;52.102;5.776;2024-03-23T10:15:33;2.50;;;1.20;;
36989;SDS011;22898;52.102;5.776;2024-03-23T10:18:04;7.40;;;1.58;;
36989;SDS011;22898;52.102;5.776;2024-03-23T10:20:43;0.63;;;0.63;;
36989;SDS011;22898;52.102;5.776;2024-03-23T10:23:17;5.55;;;1.42;;
36989;SDS011;22898;52.102;5.776;2024-03-23T10:25:43;4.00;;;1.08;;
36989;SDS011;22898;52.102;5.776;2024-03-23T10:28:10;1.67;;;1.00;;
36989;SDS011;22898;52.102;5.776;2024-03-23T10:30:36;6.05;;;1.70;;
36989;SDS011;22898;52.102;5.776;2024-03-23T10:33:11;1.00;;;0.75;;
36989;SDS011;22898;52.102;5.776;2024-03-23T10:35:37;2.72;;;0.85;;
36989;SDS011;22898;52.102;5.776;2024-03-23T10:38:06;4.00;;;0.90;;
36989;SDS011;22898;52.102;5.776;2024-03-23T10:40:35;0.80;;;0.80;;
36989;SDS011;22898;52.102;5.776;2024-03-23T10:43:05;4.88;;;1.48;;
36989;SDS011;22898;52.102;5.776;2024-03-23T10:45:33;5.30;;;1.65;;
36989;SDS011;22898;52.102;5.776;2024-03-23T10:47:59;4.90;;;1.38;;
36989;SDS011;22898;52.102;5.776;2024-03-23T10:50:24;4.15;;;1.63;;
36989;SDS011;22898;52.102;5.776;2024-03-23T10:52:50;7.03;;;1.20;;
36989;SDS011;22898;52.102;5.776;2024-03-23T10:55:18;1.00;;;0.75;;
36989;SDS011;22898;52.102;5.776;2024-03-23T10:57:53;4.45;;;0.88;;
36989;SDS011;22898;52.102;5.776;2024-03-23T11:00:20;5.90;;;1.77;;
36989;SDS011;22898;52.102;5.776;2024-03-23T11:02:47;3.13;;;1.20;;
36989;SDS011;22898;52.102;5.776;2024-03-23T11:05:46;5.97;;;1.33;;
36989;SDS011;22898;52.102;5.776;2024-03-23T11:08:11;2.17;;;0.77;;
36989;SDS011;22898;52.102;5.776;2024-03-23T11:11:08;5.63;;;1.15;;
36989;SDS011;22898;52.102;5.776;2024-03-23T11:13:44;5.45;;;1.17;;
36989;SDS011;22898;52.102;5.776;2024-03-23T11:16:25;7.00;;;1.42;;
36989;SDS011;22898;52.102;5.776;2024-03-23T11:21:59;2.17;;;0.70;;
36989;SDS011;22898;52.102;5.776;2024-03-23T11:24:25;1.20;;;0.60;;
36989;SDS011;22898;52.102;5.776;2024-03-23T11:26:51;0.75;;;0.73;;
36989;SDS011;22898;52.102;5.776;2024-03-23T11:29:16;1.60;;;0.90;;
36989;SDS011;22898;52.102;5.776;2024-03-23T11:31:49;2.33;;;0.77;;
36989;SDS011;22898;52.102;5.776;2024-03-23T11:34:16;3.40;;;1.27;;
36989;SDS011;22898;52.102;5.776;2024-03-23T11:36:42;2.25;;;0.93;;
36989;SDS011;22898;52.102;5.776;2024-03-23T11:39:15;1.83;;;1.25;;
36989;SDS011;22898;52.102;5.776;2024-03-23T11:41:48;4.80;;;1.13;;
36989;SDS011;22898;52.102;5.776;2024-03-23T11:44:19;4.72;;;1.27;;
36989;SDS011;22898;52.102;5.776;2024-03-23T11:46:46;5.72;;;1.17;;
36989;SDS011;22898;52.102;5.776;2024-03-23T11:49:28;2.95;;;0.65;;
36989;SDS011;22898;52.102;5.776;2024-03-23T11:51:55;1.70;;;0.98;;
36989;SDS011;22898;52.102;5.776;2024-03-23T11:54:22;3.30;;;1.02;;
36989;SDS011;22898;52.102;5.776;2024-03-23T11:56:55;2.60;;;0.88;;
36989;SDS011;22898;52.102;5.776;2024-03-23T11:59:39;3.83;;;2.08;;
36989;SDS011;22898;52.102;5.776;2024-03-23T12:02:06;5.32;;;1.08;;
36989;SDS011;22898;52.102;5.776;2024-03-23T12:04:32;1.75;;;0.98;;
36989;SDS011;22898;52.102;5.776;2024-03-23T12:09:47;2.72;;;0.73;;
36989;SDS011;22898;52.102;5.776;2024-03-23T12:12:27;2.45;;;0.70;;
36989;SDS011;22898;52.102;5.776;2024-03-23T12:15:06;3.60;;;1.60;;
36989;SDS011;22898;52.102;5.776;2024-03-23T12:17:33;1.38;;;0.70;;
36989;SDS011;22898;52.102;5.776;2024-03-23T12:20:00;1.95;;;0.90;;
36989;SDS011;22898;52.102;5.776;2024-03-23T12:22:26;1.80;;;0.73;;
36989;SDS011;22898;52.102;5.776;2024-03-23T12:24:54;2.38;;;1.02;;
36989;SDS011;22898;52.102;5.776;2024-03-23T12:27:20;0.85;;;0.75;;
36989;SDS011;22898;52.102;5.776;2024-03-23T12:29:46;4.60;;;0.75;;
36989;SDS011;22898;52.102;5.776;2024-03-23T12:32:12;3.80;;;0.75;;
36989;SDS011;22898;52.102;5.776;2024-03-23T12:34:38;1.48;;;0.98;;
36989;SDS011;22898;52.102;5.776;2024-03-23T12:37:04;8.57;;;1.02;;
36989;SDS011;22898;52.102;5.776;2024-03-23T12:39:31;5.90;;;1.52;;
36989;SDS011;22898;52.102;5.776;2024-03-23T12:41:57;6.45;;;1.20;;
36989;SDS011;22898;52.102;5.776;2024-03-23T12:44:23;1.25;;;0.82;;
36989;SDS011;22898;52.102;5.776;2024-03-23T12:46:48;5.07;;;0.82;;
36989;SDS011;22898;52.102;5.776;2024-03-23T12:49:14;4.95;;;1.60;;
36989;SDS011;22898;52.102;5.776;2024-03-23T12:51:43;1.73;;;1.10;;
36989;SDS011;22898;52.102;5.776;2024-03-23T12:54:18;1.92;;;0.80;;
36989;SDS011;22898;52.102;5.776;2024-03-23T12:56:43;2.90;;;1.42;;
36989;SDS011;22898;52.102;5.776;2024-03-23T12:59:13;2.13;;;1.30;;
36989;SDS011;22898;52.102;5.776;2024-03-23T13:01:39;26.80;;;7.57;;
36989;SDS011;22898;52.102;5.776;2024-03-23T13:04:05;2.78;;;1.58;;
36989;SDS011;22898;52.102;5.776;2024-03-23T13:06:31;2.88;;;0.98;;
36989;SDS011;22898;52.102;5.776;2024-03-23T13:08:59;1.70;;;0.73;;
36989;SDS011;22898;52.102;5.776;2024-03-23T13:11:28;3.17;;;1.02;;
36989;SDS011;22898;52.102;5.776;2024-03-23T13:13:54;2.35;;;0.85;;
36989;SDS011;22898;52.102;5.776;2024-03-23T13:16:20;2.15;;;0.95;;
36989;SDS011;22898;52.102;5.776;2024-03-23T13:18:46;4.40;;;0.93;;
36989;SDS011;22898;52.102;5.776;2024-03-23T13:21:11;3.72;;;1.00;;
36989;SDS011;22898;52.102;5.776;2024-03-23T13:23:37;2.00;;;1.05;;
36989;SDS011;22898;52.102;5.776;2024-03-23T13:26:05;2.60;;;0.95;;
36989;SDS011;22898;52.102;5.776;2024-03-23T13:28:30;2.88;;;1.25;;
36989;SDS011;22898;52.102;5.776;2024-03-23T13:30:56;3.97;;;1.30;;
36989;SDS011;22898;52.102;5.776;2024-03-23T13:33:28;2.08;;;0.85;;
36989;SDS011;22898;52.102;5.776;2024-03-23T13:35:55;1.63;;;0.95;;
36989;SDS011;22898;52.102;5.776;2024-03-23T13:38:23;5.25;;;0.95;;
36989;SDS011;22898;52.102;5.776;2024-03-23T13:40:53;5.43;;;1.17;;
36989;SDS011;22898;52.102;5.776;2024-03-23T13:43:20;2.50;;;0.80;;
36989;SDS011;22898;52.102;5.776;2024-03-23T13:45:49;1.50;;;0.77;;
36989;SDS011;22898;52.102;5.776;2024-03-23T13:48:25;5.53;;;1.05;;
36989;SDS011;22898;52.102;5.776;2024-03-23T13:53:30;2.83;;;0.85;;
36989;SDS011;22898;52.102;5.776;2024-03-23T13:55:57;0.60;;;0.40;;
36989;SDS011;22898;52.102;5.776;2024-03-23T13:58:23;2.67;;;0.82;;
36989;SDS011;22898;52.102;5.776;2024-03-23T14:00:50;0.57;;;0.50;;
36989;SDS011;22898;52.102;5.776;2024-03-23T14:03:16;1.65;;;1.13;;
36989;SDS011;22898;52.102;5.776;2024-03-23T14:05:43;0.65;;;0.55;;
36989;SDS011;22898;52.102;5.776;2024-03-23T14:08:09;3.30;;;1.02;;
36989;SDS011;22898;52.102;5.776;2024-03-23T14:10:36;0.40;;;0.40;;
36989;SDS011;22898;52.102;5.776;2024-03-23T14:13:05;1.15;;;0.60;;
36989;SDS011;22898;52.102;5.776;2024-03-23T14:15:30;5.43;;;0.80;;
36989;SDS011;22898;52.102;5.776;2024-03-23T14:17:56;3.53;;;0.90;;
36989;SDS011;22898;52.102;5.776;2024-03-23T14:20:22;4.60;;;0.70;;
36989;SDS011;22898;52.102;5.776;2024-03-23T14:22:48;2.65;;;0.80;;
36989;SDS011;22898;52.102;5.776;2024-03-23T14:25:14;0.57;;;0.57;;
36989;SDS011;22898;52.102;5.776;2024-03-23T14:27:40;1.17;;;0.70;;
36989;SDS011;22898;52.102;5.776;2024-03-23T14:30:06;4.53;;;1.10;;
36989;SDS011;22898;52.102;5.776;2024-03-23T14:32:32;4.15;;;0.77;;
36989;SDS011;22898;52.102;5.776;2024-03-23T14:35:01;1.17;;;0.80;;
36989;SDS011;22898;52.102;5.776;2024-03-23T14:37:26;4.85;;;1.20;;
36989;SDS011;22898;52.102;5.776;2024-03-23T14:39:52;2.00;;;0.60;;
36989;SDS011;22898;52.102;5.776;2024-03-23T14:42:18;0.70;;;0.60;;
36989;SDS011;22898;52.102;5.776;2024-03-23T14:44:43;8.18;;;0.75;;
36989;SDS011;22898;52.102;5.776;2024-03-23T14:47:09;4.53;;;1.17;;
36989;SDS011;22898;52.102;5.776;2024-03-23T14:49:35;4.40;;;1.00;;
36989;SDS011;22898;52.102;5.776;2024-03-23T14:52:01;2.20;;;0.88;;
36989;SDS011;22898;52.102;5.776;2024-03-23T14:54:27;1.52;;;1.10;;
36989;SDS011;22898;52.102;5.776;2024-03-23T14:56:52;2.38;;;0.90;;
36989;SDS011;22898;52.102;5.776;2024-03-23T14:59:18;5.57;;;1.08;;
36989;SDS011;22898;52.102;5.776;2024-03-23T15:01:44;2.95;;;1.58;;
36989;SDS011;22898;52.102;5.776;2024-03-23T15:04:11;0.68;;;0.68;;
36989;SDS011;22898;52.102;5.776;2024-03-23T15:06:37;3.63;;;1.35;;
36989;SDS011;22898;52.102;5.776;2024-03-23T15:09:03;6.75;;;1.30;;
36989;SDS011;22898;52.102;5.776;2024-03-23T15:11:32;1.75;;;0.88;;
36989;SDS011;22898;52.102;5.776;2024-03-23T15:13:58;2.45;;;1.23;;
36989;SDS011;22898;52.102;5.776;2024-03-23T15:16:24;1.73;;;1.30;;
36989;SDS011;22898;52.102;5.776;2024-03-23T15:18:49;4.95;;;1.00;;
36989;SDS011;22898;52.102;5.776;2024-03-23T15:21:15;6.07;;;2.05;;
36989;SDS011;22898;52.102;5.776;2024-03-23T15:23:45;4.63;;;0.95;;
36989;SDS011;22898;52.102;5.776;2024-03-23T15:26:11;4.15;;;0.93;;
36989;SDS011;22898;52.102;5.776;2024-03-23T15:28:37;2.28;;;0.95;;
36989;SDS011;22898;52.102;5.776;2024-03-23T15:31:09;0.45;;;0.45;;
36989;SDS011;22898;52.102;5.776;2024-03-23T15:33:35;1.90;;;0.60;;
36989;SDS011;22898;52.102;5.776;2024-03-23T15:36:02;0.57;;;0.57;;
36989;SDS011;22898;52.102;5.776;2024-03-23T15:38:28;4.53;;;0.93;;
36989;SDS011;22898;52.102;5.776;2024-03-23T15:40:56;0.55;;;0.50;;
36989;SDS011;22898;52.102;5.776;2024-03-23T15:43:22;1.90;;;0.98;;